Time;durP1;ratioP1;P1;durP2;ratioP2;P2;SDS_P1;SDS_P2;PMS_P1;PMS_P2;Temp;Humidity;BMP_temperature;BMP_pressure;BME280_temperature;BME280_humidity;BME280_pressure;Samples;Min_cycle;Max_cycle;Signal;HPM_P1;HPM_P2
2021/04/22 00:00:35;;;;;;;65.57;18.13;;;30.30;75.80;;;;;;5105889;28;20031;-51
2021/04/22 00:03:02;;;;;;;59.20;18.98;;;30.30;75.70;;;;;;5087859;28;20221;-45
2021/04/22 00:05:34;;;;;;;52.08;17.25;;;30.30;75.70;;;;;;5106049;28;20028;-46
2021/04/22 00:08:01;;;;;;;59.92;17.00;;;30.30;75.70;;;;;;5105814;28;20016;-46
2021/04/22 00:10:35;;;;;;;62.65;16.70;;;30.30;75.70;;;;;;5105520;28;20042;-45
2021/04/22 00:13:04;;;;;;;54.03;16.08;;;30.30;75.50;;;;;;5105520;28;20381;-51
2021/04/22 00:15:31;;;;;;;63.78;15.57;;;30.20;75.40;;;;;;5105797;28;20028;-54
2021/04/22 00:17:59;;;;;;;47.47;14.48;;;30.20;75.40;;;;;;5105598;28;20234;-53
2021/04/22 00:20:28;;;;;;;49.03;13.82;;;30.20;75.30;;;;;;5105674;28;20031;-49
2021/04/22 00:22:56;;;;;;;38.83;13.43;;;30.20;75.30;;;;;;5105356;28;20047;-44
2021/04/22 00:25:23;;;;;;;40.63;12.80;;;30.20;75.20;;;;;;5087177;28;20212;-47
2021/04/22 00:27:50;;;;;;;33.17;12.70;;;30.10;75.20;;;;;;5104492;28;20043;-49
2021/04/22 00:30:18;;;;;;;29.85;12.48;;;30.10;75.20;;;;;;5105397;28;20046;-50
2021/04/22 00:32:46;;;;;;;43.63;12.48;;;30.10;75.30;;;;;;5105760;28;20083;-50
2021/04/22 00:35:13;;;;;;;58.97;13.00;;;30.10;75.40;;;;;;5106232;28;20024;-49
2021/04/22 00:37:40;;;;;;;56.13;12.60;;;30.00;75.40;;;;;;5105218;28;20016;-44
2021/04/22 00:40:14;;;;;;;34.95;11.75;;;30.00;75.50;;;;;;5105804;28;20055;-51
2021/04/22 00:42:40;;;;;;;35.85;10.98;;;30.00;75.80;;;;;;5087734;28;20304;-50
2021/04/22 00:45:08;;;;;;;26.95;12.10;;;30.00;75.60;;;;;;5105137;28;20267;-46
2021/04/22 00:47:36;;;;;;;33.78;12.65;;;30.00;75.60;;;;;;5104791;28;20105;-49
2021/04/22 00:50:05;;;;;;;33.25;12.52;;;30.00;75.70;;;;;;5104956;28;20034;-50
2021/04/22 00:52:32;;;;;;;30.45;12.23;;;29.90;75.80;;;;;;5104226;28;20243;-49
2021/04/22 00:54:58;;;;;;;34.08;11.77;;;29.90;75.90;;;;;;5104936;28;20080;-50
2021/04/22 00:57:25;;;;;;;32.90;13.18;;;29.90;76.10;;;;;;5086743;28;20038;-47
2021/04/22 00:59:53;;;;;;;27.75;12.38;;;29.90;76.00;;;;;;5105018;28;20190;-52
2021/04/22 01:02:20;;;;;;;53.90;12.77;;;29.80;75.90;;;;;;5104695;28;20054;-49
2021/04/22 01:04:47;;;;;;;39.72;11.90;;;29.90;76.00;;;;;;5104474;28;20047;-51
2021/04/22 01:07:15;;;;;;;23.92;10.52;;;29.90;75.90;;;;;;5104635;28;20444;-51
2021/04/22 01:09:43;;;;;;;30.23;11.43;;;29.80;75.70;;;;;;5086571;28;20020;-51
2021/04/22 01:12:11;;;;;;;29.92;11.95;;;29.80;75.70;;;;;;5104636;28;20012;-45
2021/04/22 01:14:40;;;;;;;31.60;10.75;;;29.80;75.60;;;;;;5104784;28;20016;-47
2021/04/22 01:17:08;;;;;;;29.08;11.00;;;29.80;75.60;;;;;;5104554;28;20243;-51
2021/04/22 01:19:36;;;;;;;23.58;11.48;;;29.80;75.50;;;;;;5104603;28;20016;-50
2021/04/22 01:22:03;;;;;;;25.17;9.88;;;29.80;75.40;;;;;;5104354;28;20056;-53
2021/04/22 01:24:33;;;;;;;30.27;10.35;;;29.80;75.40;;;;;;5104413;28;20023;-49
2021/04/22 01:27:00;;;;;;;26.88;10.48;;;29.80;75.30;;;;;;5104185;28;20046;-45
2021/04/22 01:29:26;;;;;;;27.30;10.52;;;29.80;75.30;;;;;;5085704;28;20028;-45
2021/04/22 01:31:54;;;;;;;24.48;10.68;;;29.80;75.80;;;;;;5104775;28;20016;-50
2021/04/22 01:34:22;;;;;;;19.88;9.65;;;29.80;75.30;;;;;;5103899;28;20035;-45
2021/04/22 01:36:48;;;;;;;40.22;23.95;;;29.80;75.30;;;;;;5104661;28;20031;-45
2021/04/22 01:39:16;;;;;;;37.45;16.60;;;29.80;75.30;;;;;;5104285;28;20287;-45
2021/04/22 01:41:43;;;;;;;37.15;16.48;;;29.80;75.20;;;;;;5069604;28;20020;-49
2021/04/22 01:44:10;;;;;;;41.03;19.05;;;29.80;75.30;;;;;;5104184;28;20135;-44
2021/04/22 01:46:37;;;;;;;41.15;20.38;;;29.80;75.50;;;;;;5103966;28;20055;-51
2021/04/22 01:49:04;;;;;;;33.38;16.67;;;29.70;75.30;;;;;;5103953;28;20083;-51
2021/04/22 01:51:32;;;;;;;41.38;19.45;;;29.70;75.20;;;;;;5104512;28;20020;-50
2021/04/22 01:53:59;;;;;;;36.40;17.33;;;29.70;75.10;;;;;;5103917;28;20024;-56
2021/04/22 01:56:26;;;;;;;32.72;15.93;;;29.70;75.10;;;;;;5103951;28;20026;-47
2021/04/22 01:58:53;;;;;;;33.63;14.75;;;29.70;75.00;;;;;;5104272;28;20028;-45
2021/04/22 02:01:19;;;;;;;35.85;14.15;;;29.70;75.20;;;;;;5086313;28;20032;-45
2021/04/22 02:03:46;;;;;;;31.30;13.20;;;29.70;75.20;;;;;;5103852;28;20093;-53
2021/04/22 02:06:12;;;;;;;41.40;21.10;;;29.70;75.20;;;;;;5104043;28;20028;-54
2021/04/22 02:08:39;;;;;;;78.18;31.02;;;29.70;75.30;;;;;;5103947;28;20031;-48
2021/04/22 02:11:06;;;;;;;39.63;19.00;;;29.70;75.30;;;;;;5103773;28;20023;-49
2021/04/22 02:13:34;;;;;;;48.20;18.88;;;29.60;75.20;;;;;;5104442;28;20210;-48
2021/04/22 02:16:01;;;;;;;35.05;16.83;;;29.60;75.30;;;;;;5103539;28;20042;-61
2021/04/22 02:18:28;;;;;;;202.18;84.05;;;29.60;75.60;;;;;;5103886;28;20087;-48
2021/04/22 02:20:55;;;;;;;147.50;62.33;;;29.60;75.70;;;;;;5103897;28;20071;-50
2021/04/22 02:23:24;;;;;;;140.65;56.55;;;29.50;75.90;;;;;;5103860;28;20087;-52
2021/04/22 02:25:51;;;;;;;122.10;54.60;;;29.50;76.10;;;;;;5103858;28;20091;-55
2021/04/22 02:28:17;;;;;;;87.95;47.05;;;29.50;76.10;;;;;;5086049;28;20340;-49
2021/04/22 02:30:46;;;;;;;71.22;32.28;;;29.50;76.00;;;;;;5085723;28;20217;-51
2021/04/22 02:33:19;;;;;;;55.85;28.60;;;29.40;76.00;;;;;;5103791;28;20072;-54
2021/04/22 02:35:47;;;;;;;53.25;25.75;;;29.40;75.80;;;;;;5104080;28;20032;-54
2021/04/22 02:38:15;;;;;;;46.35;23.00;;;29.40;75.60;;;;;;5103690;28;20059;-48
2021/04/22 02:40:43;;;;;;;44.08;21.10;;;29.40;75.60;;;;;;5085447;28;20044;-54
2021/04/22 02:43:13;;;;;;;38.25;21.42;;;29.40;75.60;;;;;;5103434;28;20016;-49
2021/04/22 02:45:46;;;;;;;37.60;17.90;;;29.40;75.70;;;;;;5103780;28;20095;-45
2021/04/22 02:48:13;;;;;;;35.03;15.57;;;29.40;75.80;;;;;;5103479;28;20019;-43
2021/04/22 02:50:43;;;;;;;33.30;15.48;;;29.40;75.70;;;;;;5103959;28;20020;-43
2021/04/22 02:53:10;;;;;;;31.45;13.95;;;29.30;75.70;;;;;;5107934;28;20016;-42
2021/04/22 02:55:38;;;;;;;30.23;12.98;;;29.30;75.80;;;;;;5108016;28;20028;-49
2021/04/22 02:58:04;;;;;;;27.20;11.68;;;29.30;75.70;;;;;;5107418;28;20019;-45
2021/04/22 03:00:31;;;;;;;27.05;12.80;;;29.30;75.50;;;;;;5089418;28;20027;-41
2021/04/22 03:02:58;;;;;;;26.85;11.52;;;29.20;75.40;;;;;;5108646;28;20020;-45
2021/04/22 03:05:25;;;;;;;23.20;11.25;;;29.20;75.50;;;;;;5107791;28;20031;-43
2021/04/22 03:07:51;;;;;;;28.50;11.02;;;29.20;75.30;;;;;;5107304;28;20020;-46
2021/04/22 03:10:20;;;;;;;20.42;10.90;;;29.20;75.30;;;;;;5107375;28;20024;-42
2021/04/22 03:12:47;;;;;;;21.15;11.13;;;29.20;75.30;;;;;;5107487;28;20047;-47
2021/04/22 03:15:16;;;;;;;24.45;10.98;;;29.20;75.70;;;;;;5107292;28;20095;-47
2021/04/22 03:17:43;;;;;;;22.50;11.35;;;29.20;75.70;;;;;;5107103;28;20020;-46
2021/04/22 03:20:14;;;;;;;31.05;11.73;;;29.20;75.80;;;;;;5108671;28;20027;-51
2021/04/22 03:22:42;;;;;;;35.72;11.02;;;29.10;76.00;;;;;;5109427;28;20205;-49
2021/04/22 03:25:14;;;;;;;30.48;10.82;;;29.10;76.20;;;;;;5107773;28;20031;-52
2021/04/22 03:27:40;;;;;;;;;;;29.10;76.00;;;;;;5088894;28;20396;-49
2021/04/22 03:30:09;;;;;;;25.70;10.43;;;29.10;75.90;;;;;;5088491;28;19915;-46
2021/04/22 03:32:36;;;;;;;35.17;11.80;;;29.10;76.00;;;;;;5106686;28;20012;-49
2021/04/22 03:35:04;;;;;;;25.83;10.80;;;29.10;76.20;;;;;;5088624;28;20051;-44
2021/04/22 03:37:31;;;;;;;28.65;11.82;;;29.10;76.20;;;;;;5106474;28;20312;-49
2021/04/22 03:40:03;;;;;;;22.45;10.77;;;29.00;76.40;;;;;;5106630;28;20020;-49
2021/04/22 03:42:30;;;;;;;26.70;11.30;;;29.00;76.50;;;;;;5106834;28;20016;-48
2021/04/22 03:44:57;;;;;;;26.65;10.23;;;29.00;76.40;;;;;;5088100;28;20024;-51
2021/04/22 03:47:23;;;;;;;22.90;10.55;;;29.00;76.10;;;;;;5106337;28;20308;-46
2021/04/22 03:49:50;;;;;;;18.30;10.35;;;29.10;75.90;;;;;;5106405;28;20091;-56
2021/04/22 03:52:17;;;;;;;25.23;10.35;;;29.10;75.80;;;;;;5106134;28;20189;-46
2021/04/22 03:54:43;;;;;;;20.38;10.45;;;29.00;75.70;;;;;;5106420;28;20022;-46
2021/04/22 03:57:10;;;;;;;21.33;10.02;;;29.10;75.60;;;;;;5106315;28;20022;-53
2021/04/22 03:59:37;;;;;;;20.35;10.10;;;29.00;75.40;;;;;;5088126;28;20306;-53
2021/04/22 04:02:04;;;;;;;19.13;9.57;;;29.00;75.40;;;;;;5106675;28;20059;-50
2021/04/22 04:04:31;;;;;;;20.25;10.98;;;29.00;75.40;;;;;;5106108;28;20027;-49
2021/04/22 04:07:04;;;;;;;17.85;10.15;;;29.00;75.50;;;;;;5106350;28;20051;-50
2021/04/22 04:09:30;;;;;;;22.30;9.50;;;29.00;75.60;;;;;;5106015;28;20023;-46
2021/04/22 04:11:57;;;;;;;19.75;9.82;;;29.00;75.70;;;;;;5088009;28;20060;-42
2021/04/22 04:14:24;;;;;;;23.52;10.73;;;29.00;75.80;;;;;;5105839;28;20019;-46
2021/04/22 04:16:51;;;;;;;20.90;9.93;;;29.00;75.90;;;;;;5106869;28;20047;-47
2021/04/22 04:19:17;;;;;;;16.15;10.02;;;29.00;76.00;;;;;;5105794;28;20317;-47
2021/04/22 04:21:44;;;;;;;22.77;10.40;;;28.90;76.00;;;;;;5105683;28;20052;-45
2021/04/22 04:24:11;;;;;;;18.52;9.88;;;28.90;76.20;;;;;;5106019;28;20355;-50
2021/04/22 04:26:38;;;;;;;19.52;9.88;;;28.90;76.10;;;;;;5105510;28;20377;-46
2021/04/22 04:29:04;;;;;;;16.52;10.60;;;28.90;76.30;;;;;;5105489;28;20043;-48
2021/04/22 04:32:02;;;;;;;22.55;9.85;;;28.90;76.50;;;;;;5106348;28;20023;-54
2021/04/22 04:34:29;;;;;;;18.23;10.15;;;28.90;76.50;;;;;;5084974;28;20075;-48
2021/04/22 04:36:56;;;;;;;20.40;10.15;;;28.80;76.40;;;;;;5106324;28;20091;-58
2021/04/22 04:39:22;;;;;;;19.83;9.55;;;28.80;76.40;;;;;;5105640;28;20024;-47
2021/04/22 04:41:49;;;;;;;16.48;9.93;;;28.80;76.30;;;;;;5105716;28;20231;-57
2021/04/22 04:44:16;;;;;;;15.65;9.38;;;28.80;76.40;;;;;;5105319;28;20082;-46
2021/04/22 04:46:42;;;;;;;18.10;9.38;;;28.80;76.40;;;;;;5105697;28;20023;-51
2021/04/22 04:49:09;;;;;;;16.33;10.10;;;28.80;76.40;;;;;;5105123;28;20031;-46
2021/04/22 04:51:36;;;;;;;24.33;10.57;;;28.80;76.50;;;;;;5105955;28;20196;-52
2021/04/22 04:57:39;;;;;;;22.77;9.80;;;28.80;76.70;;;;;;5010291;28;20139;-45
2021/04/22 05:00:08;;;;;;;20.85;10.45;;;28.70;76.60;;;;;;5043160;28;20326;-52
2021/04/22 05:02:35;;;;;;;18.75;10.30;;;28.70;76.70;;;;;;5105068;28;20026;-49
2021/04/22 05:05:03;;;;;;;19.17;10.05;;;28.70;76.90;;;;;;5104738;28;20125;-55
2021/04/22 05:07:30;;;;;;;20.50;9.98;;;28.70;76.80;;;;;;5104804;28;20209;-46
2021/04/22 05:09:58;;;;;;;17.20;9.50;;;28.60;76.80;;;;;;5105290;28;20020;-48
2021/04/22 05:12:25;;;;;;;17.17;10.07;;;28.60;76.90;;;;;;5104664;28;20323;-45
2021/04/22 05:14:52;;;;;;;18.77;10.23;;;28.60;77.00;;;;;;5104904;28;20026;-46
2021/04/22 05:17:19;;;;;;;17.05;10.52;;;28.60;77.20;;;;;;5104761;28;20316;-45
2021/04/22 05:19:46;;;;;;;19.58;10.20;;;28.60;77.40;;;;;;5105000;28;20031;-45
2021/04/22 05:22:12;;;;;;;17.50;10.13;;;28.60;77.40;;;;;;5104562;28;20061;-50
2021/04/22 05:24:39;;;;;;;18.75;10.88;;;28.60;77.50;;;;;;5105051;28;20024;-50
2021/04/22 05:27:06;;;;;;;21.45;11.40;;;28.50;77.50;;;;;;5086290;28;20040;-50
2021/04/22 05:29:34;;;;;;;18.00;10.00;;;28.50;77.60;;;;;;5105007;28;20293;-42
2021/04/22 05:32:01;;;;;;;21.10;10.57;;;28.50;77.70;;;;;;5104356;28;20217;-48
2021/04/22 05:34:29;;;;;;;18.67;10.90;;;28.50;77.90;;;;;;5104649;28;20028;-44
2021/04/22 05:36:55;;;;;;;22.55;10.45;;;28.50;78.20;;;;;;5104357;28;20020;-45
2021/04/22 05:39:22;;;;;;;23.85;10.98;;;28.50;78.20;;;;;;5104693;28;20319;-50
2021/04/22 05:41:55;;;;;;;17.05;10.07;;;28.40;78.00;;;;;;5104097;28;20028;-51
2021/04/22 05:44:22;;;;;;;16.20;10.13;;;28.40;78.20;;;;;;5104498;28;20194;-51
2021/04/22 05:46:49;;;;;;;17.10;10.65;;;28.40;78.10;;;;;;5104161;28;20260;-53
2021/04/22 05:49:16;;;;;;;25.40;11.07;;;28.40;78.10;;;;;;5104379;28;20032;-46
2021/04/22 05:51:42;;;;;;;21.15;10.63;;;28.40;78.30;;;;;;5104165;28;20023;-48
2021/04/22 05:54:10;;;;;;;19.40;10.48;;;28.40;78.50;;;;;;5104537;28;20020;-45
2021/04/22 05:56:38;;;;;;;16.30;10.38;;;28.40;78.60;;;;;;5104065;28;20020;-52
2021/04/22 05:59:05;;;;;;;18.35;10.65;;;28.40;78.60;;;;;;5104421;28;20335;-51
2021/04/22 06:01:31;;;;;;;15.32;10.15;;;28.40;78.70;;;;;;5104082;28;20028;-49
2021/04/22 06:03:58;;;;;;;17.63;10.40;;;28.40;78.60;;;;;;5104146;28;20091;-46
2021/04/22 06:06:25;;;;;;;20.13;10.60;;;28.40;78.60;;;;;;5103959;28;20190;-44
2021/04/22 06:08:51;;;;;;;17.55;10.10;;;28.30;78.70;;;;;;5104176;28;20216;-41
2021/04/22 06:11:18;;;;;;;23.85;10.63;;;28.30;78.60;;;;;;5103980;28;20016;-41
2021/04/22 06:13:45;;;;;;;18.40;10.38;;;28.30;78.50;;;;;;5104046;28;20035;-43
2021/04/22 06:16:13;;;;;;;19.08;10.82;;;28.30;78.60;;;;;;5103776;28;20217;-45
2021/04/22 06:18:40;;;;;;;17.52;10.60;;;28.30;79.00;;;;;;5103818;28;20101;-48
2021/04/22 06:21:09;;;;;;;21.13;10.73;;;28.30;79.00;;;;;;5103453;28;20348;-47
2021/04/22 06:23:36;;;;;;;19.77;10.52;;;28.30;79.10;;;;;;5103083;28;20038;-54
2021/04/22 06:26:02;;;;;;;14.43;10.75;;;28.30;79.30;;;;;;5103171;28;20031;-44
2021/04/22 06:28:29;;;;;;;16.73;10.63;;;28.30;79.30;;;;;;5106827;28;20305;-45
2021/04/22 06:30:56;;;;;;;19.00;9.98;;;28.30;79.30;;;;;;5106518;28;20117;-51
2021/04/22 06:33:22;;;;;;;15.27;10.20;;;28.30;79.10;;;;;;5106493;28;20024;-50
2021/04/22 06:35:49;;;;;;;21.08;11.35;;;28.30;79.00;;;;;;5106543;28;20062;-51
2021/04/22 06:38:16;;;;;;;17.08;10.07;;;28.30;79.20;;;;;;5106379;28;20340;-55
2021/04/22 06:40:43;;;;;;;19.85;10.63;;;28.30;79.30;;;;;;5106379;28;20020;-56
2021/04/22 06:43:13;;;;;;;21.25;11.70;;;28.30;79.30;;;;;;5106387;28;20032;-53
2021/04/22 06:45:43;;;;;;;19.85;11.07;;;28.30;79.60;;;;;;5106229;28;20039;-55
2021/04/22 06:48:11;;;;;;;15.70;10.55;;;28.30;79.80;;;;;;5106289;28;20024;-56
2021/04/22 06:50:39;;;;;;;20.67;10.93;;;28.30;79.70;;;;;;5106295;28;20304;-46
2021/04/22 06:53:05;;;;;;;18.55;11.23;;;28.30;79.80;;;;;;5106360;28;20028;-48
2021/04/22 06:55:32;;;;;;;19.02;10.75;;;28.30;79.70;;;;;;5106091;28;20012;-46
2021/04/22 06:58:00;;;;;;;16.67;11.05;;;28.30;79.90;;;;;;5106064;28;20016;-42
2021/04/22 07:00:29;;;;;;;16.98;10.75;;;28.30;79.90;;;;;;5106022;28;20279;-43
2021/04/22 07:02:56;;;;;;;19.80;10.65;;;28.30;79.80;;;;;;5106140;28;20085;-41
2021/04/22 07:05:23;;;;;;;17.75;11.23;;;28.30;80.40;;;;;;5105773;28;20103;-41
2021/04/22 07:07:50;;;;;;;23.95;10.50;;;28.30;79.90;;;;;;5105893;28;20016;-43
2021/04/22 07:10:17;;;;;;;18.27;11.45;;;28.30;79.90;;;;;;5106112;28;20012;-42
2021/04/22 07:12:44;;;;;;;14.98;9.95;;;28.30;80.00;;;;;;5105741;28;20020;-43
2021/04/22 07:15:12;;;;;;;17.25;10.52;;;28.30;79.90;;;;;;5105868;28;20054;-44
2021/04/22 07:17:39;;;;;;;20.45;10.95;;;28.20;79.90;;;;;;5105866;28;20079;-46
2021/04/22 07:20:17;;;;;;;20.27;10.68;;;28.20;79.80;;;;;;5105827;28;20034;-51
2021/04/22 07:22:43;;;;;;;16.55;10.70;;;28.20;79.80;;;;;;5050335;28;1607886;-50
2021/04/22 07:25:12;;;;;;;20.38;10.45;;;28.20;79.90;;;;;;5088799;28;20032;-50
2021/04/22 07:27:39;;;;;;;16.35;10.60;;;28.20;79.90;;;;;;5106811;28;20020;-51
2021/04/22 07:30:07;;;;;;;15.70;10.20;;;28.20;80.00;;;;;;5088648;28;20020;-54
2021/04/22 07:32:35;;;;;;;21.05;10.70;;;28.20;79.70;;;;;;5106845;28;20075;-50
2021/04/22 07:35:01;;;;;;;18.60;10.80;;;28.20;79.80;;;;;;5107248;28;20087;-45
2021/04/22 07:37:28;;;;;;;16.55;10.30;;;28.20;80.00;;;;;;5106114;28;20026;-45
2021/04/22 07:39:55;;;;;;;19.13;10.73;;;28.20;80.20;;;;;;5107132;28;20281;-50
2021/04/22 07:42:22;;;;;;;19.13;10.68;;;28.20;80.40;;;;;;5106473;28;20241;-49
2021/04/22 07:44:48;;;;;;;19.45;10.05;;;28.20;80.40;;;;;;5106815;28;20023;-47
2021/04/22 07:47:17;;;;;;;15.80;10.05;;;28.20;80.50;;;;;;5106402;28;20313;-45
2021/04/22 07:49:45;;;;;;;15.85;10.27;;;28.10;80.60;;;;;;5106857;28;20296;-46
2021/04/22 07:52:12;;;;;;;16.50;10.40;;;28.10;80.70;;;;;;5106253;28;20039;-45
2021/04/22 07:54:38;;;;;;;17.23;10.98;;;28.10;81.00;;;;;;5106716;28;20016;-45
2021/04/22 07:57:05;;;;;;;17.83;10.85;;;28.10;81.20;;;;;;5106227;28;20028;-44
2021/04/22 07:59:32;;;;;;;20.33;11.10;;;28.10;81.20;;;;;;5106507;28;20308;-51
2021/04/22 08:01:58;;;;;;;20.55;10.60;;;28.10;81.10;;;;;;5106230;28;20350;-51
2021/04/22 08:04:25;;;;;;;18.05;10.45;;;28.10;81.20;;;;;;5106613;28;20024;-44
2021/04/22 08:06:51;;;;;;;18.25;10.25;;;28.10;81.20;;;;;;5105988;28;20103;-45
2021/04/22 08:09:18;;;;;;;18.65;10.68;;;28.10;81.00;;;;;;5106466;28;20308;-50
2021/04/22 08:11:45;;;;;;;19.02;11.10;;;28.10;80.80;;;;;;5106026;28;20024;-44
2021/04/22 08:14:11;;;;;;;17.98;9.57;;;28.10;80.60;;;;;;5106374;28;20020;-48
2021/04/22 08:16:38;;;;;;;17.80;10.35;;;28.00;80.50;;;;;;5106109;28;20063;-47
2021/04/22 08:19:06;;;;;;;18.95;10.82;;;28.00;80.50;;;;;;5106217;28;20016;-47
2021/04/22 08:21:33;;;;;;;18.52;10.75;;;28.00;80.40;;;;;;5105731;28;20056;-55
2021/04/22 08:23:59;;;;;;;18.20;10.35;;;28.00;80.70;;;;;;5106012;28;20324;-50
2021/04/22 08:26:26;;;;;;;15.65;10.63;;;28.00;80.90;;;;;;5105710;28;20027;-47
2021/04/22 08:28:53;;;;;;;17.80;10.75;;;28.00;81.10;;;;;;5105873;28;20091;-47
2021/04/22 08:31:24;;;;;;;16.33;10.40;;;28.00;81.20;;;;;;5105709;28;20028;-47
2021/04/22 08:33:58;;;;;;;15.82;10.40;;;28.00;81.20;;;;;;5087647;28;20293;-49
2021/04/22 08:36:26;;;;;;;16.23;11.20;;;27.90;81.30;;;;;;5105388;28;20097;-50
2021/04/22 08:38:53;;;;;;;15.55;10.30;;;28.00;81.40;;;;;;5105800;28;20020;-45
2021/04/22 08:41:21;;;;;;;21.08;10.63;;;28.00;81.40;;;;;;5105430;28;20039;-48
2021/04/22 08:43:49;;;;;;;19.42;10.80;;;27.90;81.30;;;;;;5105420;28;20084;-47
2021/04/22 08:46:16;;;;;;;18.00;10.25;;;28.00;81.40;;;;;;5105200;28;20035;-53
2021/04/22 08:48:43;;;;;;;17.40;10.50;;;28.00;81.20;;;;;;5104765;28;20016;-47
2021/04/22 08:51:12;;;;;;;21.42;10.48;;;28.00;80.90;;;;;;5105386;28;20091;-50
2021/04/22 08:53:44;;;;;;;17.63;10.88;;;28.00;80.90;;;;;;5105350;28;20023;-50
2021/04/22 08:56:11;;;;;;;18.48;9.85;;;28.00;80.60;;;;;;5105316;28;20035;-48
2021/04/22 08:58:38;;;;;;;19.48;10.23;;;28.00;80.60;;;;;;5105408;28;20020;-47
2021/04/22 09:01:12;;;;;;;24.05;9.88;;;28.00;80.40;;;;;;5105010;28;20027;-51
2021/04/22 09:03:40;;;;;;;20.05;10.18;;;28.00;80.40;;;;;;5105134;28;20087;-47
2021/04/22 09:06:07;;;;;;;19.15;9.55;;;28.00;80.40;;;;;;5105117;28;20032;-47
2021/04/22 09:08:48;;;;;;;18.65;10.35;;;28.00;80.50;;;;;;5105196;28;20024;-45
2021/04/22 09:11:18;;;;;;;22.90;10.25;;;28.00;80.50;;;;;;5104711;28;20087;-47
2021/04/22 09:13:45;;;;;;;22.42;10.73;;;27.90;80.50;;;;;;5105071;28;20012;-43
2021/04/22 09:16:14;;;;;;;22.17;10.70;;;28.00;80.80;;;;;;5104761;28;20028;-44
2021/04/22 09:18:49;;;;;;;18.65;10.57;;;27.90;80.80;;;;;;5104807;28;20255;-45
2021/04/22 09:21:22;;;;;;;24.80;10.75;;;27.90;80.90;;;;;;5104559;28;20101;-45
2021/04/22 09:24:08;;;;;;;17.80;10.57;;;27.90;81.30;;;;;;5104763;28;20031;-44
2021/04/22 09:26:51;;;;;;;19.48;10.52;;;27.90;81.20;;;;;;5104713;28;20023;-45
2021/04/22 09:29:36;;;;;;;22.65;10.45;;;27.90;81.40;;;;;;5104791;28;20015;-53
2021/04/22 09:32:16;;;;;;;20.77;10.82;;;27.90;81.50;;;;;;5104641;28;20186;-53
2021/04/22 09:35:11;;;;;;;19.05;10.68;;;27.80;81.40;;;;;;5104827;28;20312;-51
2021/04/22 09:37:46;;;;;;;17.30;10.48;;;27.80;81.40;;;;;;5095038;28;20032;-46
2021/04/22 09:40:34;;;;;;;16.95;10.65;;;27.80;81.30;;;;;;5104239;28;20024;-49
2021/04/22 09:43:06;;;;;;;21.48;10.75;;;27.80;81.30;;;;;;5104226;28;20083;-58
2021/04/22 09:45:35;;;;;;;15.48;10.88;;;27.80;81.20;;;;;;5104172;28;20212;-49
2021/04/22 09:48:29;;;;;;;18.63;10.63;;;27.80;81.00;;;;;;5104152;28;20065;-52
2021/04/22 09:51:02;;;;;;;18.25;11.02;;;27.80;81.00;;;;;;5104213;28;20024;-50
2021/04/22 09:53:29;;;;;;;15.85;10.32;;;27.80;80.80;;;;;;5104006;28;20028;-47
2021/04/22 09:56:12;;;;;;;18.30;9.95;;;27.80;80.80;;;;;;5104205;28;20047;-52
2021/04/22 09:58:39;;;;;;;18.95;10.35;;;27.80;80.70;;;;;;5104020;28;20024;-60
2021/04/22 10:01:07;;;;;;;19.10;10.70;;;27.80;80.60;;;;;;5103914;28;20019;-52
2021/04/22 10:03:35;;;;;;;18.58;9.75;;;27.70;80.40;;;;;;5104227;28;20031;-44
2021/04/22 10:06:04;;;;;;;18.15;10.15;;;27.80;80.40;;;;;;5103827;28;20047;-47
2021/04/22 10:08:31;;;;;;;22.35;11.07;;;27.70;80.20;;;;;;5104038;28;20087;-44
2021/04/22 10:11:08;;;;;;;18.48;9.98;;;27.70;80.20;;;;;;5104020;28;20335;-49
2021/04/22 10:13:49;;;;;;;16.35;10.10;;;27.70;80.00;;;;;;5104009;28;20028;-48
2021/04/22 10:16:16;;;;;;;19.70;10.68;;;27.70;79.90;;;;;;5103859;28;20344;-49
2021/04/22 10:18:45;;;;;;;24.15;10.13;;;27.70;79.80;;;;;;5104065;28;20051;-45
2021/04/22 10:21:16;;;;;;;20.80;10.23;;;27.70;79.80;;;;;;5103684;28;20073;-48
2021/04/22 10:23:42;;;;;;;19.80;10.15;;;27.70;79.60;;;;;;5103869;28;20028;-47
2021/04/22 10:26:20;;;;;;;19.70;10.88;;;27.70;79.50;;;;;;5103610;28;20224;-48
2021/04/22 10:28:47;;;;;;;16.38;11.27;;;27.70;79.50;;;;;;5103957;28;20068;-53
2021/04/22 10:31:14;;;;;;;21.55;11.15;;;27.70;79.50;;;;;;5103589;28;20016;-53
2021/04/22 10:33:42;;;;;;;20.13;9.85;;;27.60;79.50;;;;;;5103982;28;20050;-52
2021/04/22 10:36:09;;;;;;;22.10;11.70;;;27.70;79.60;;;;;;5103827;28;20024;-49
2021/04/22 10:38:36;;;;;;;17.70;10.88;;;27.70;79.60;;;;;;5103806;28;20028;-44
2021/04/22 10:41:03;;;;;;;23.27;10.20;;;27.70;80.10;;;;;;5103757;28;20027;-48
2021/04/22 10:43:30;;;;;;;25.55;10.88;;;27.70;79.90;;;;;;5103827;28;20028;-51
2021/04/22 10:45:57;;;;;;;17.17;10.68;;;27.70;79.20;;;;;;5103454;28;20032;-52
2021/04/22 10:48:24;;;;;;;21.58;10.23;;;27.70;79.10;;;;;;5103802;28;20391;-51
2021/04/22 10:50:53;;;;;;;17.92;10.25;;;27.70;79.10;;;;;;5103868;28;20095;-47
2021/04/22 10:53:22;;;;;;;22.20;10.70;;;27.70;79.10;;;;;;5103589;28;20020;-44
2021/04/22 10:55:57;;;;;;;22.77;10.45;;;27.70;79.10;;;;;;5103623;28;20020;-47
2021/04/22 10:58:26;;;;;;;20.75;10.18;;;27.70;79.10;;;;;;5103647;28;20057;-56
2021/04/22 11:00:56;;;;;;;20.65;10.60;;;27.70;79.10;;;;;;5103606;28;20020;-47
2021/04/22 11:03:37;;;;;;;18.27;10.82;;;27.70;79.10;;;;;;5103642;28;20031;-49
2021/04/22 11:06:21;;;;;;;18.52;10.93;;;27.70;79.10;;;;;;5103608;28;20382;-52
2021/04/22 11:08:54;;;;;;;22.92;10.93;;;27.70;79.10;;;;;;5103730;28;20046;-54
2021/04/22 11:11:32;;;;;;;19.70;10.48;;;27.70;79.00;;;;;;5103462;28;20024;-48
2021/04/22 11:14:14;;;;;;;21.17;11.38;;;27.70;79.00;;;;;;5107144;28;20031;-51
2021/04/22 11:16:54;;;;;;;16.23;10.23;;;27.70;78.80;;;;;;5107008;28;20091;-47
2021/04/22 11:19:30;;;;;;;17.65;10.43;;;27.90;78.60;;;;;;5107379;28;20027;-47
2021/04/22 11:22:12;;;;;;;19.50;10.60;;;28.00;78.00;;;;;;5106812;28;20044;-48
2021/04/22 11:24:43;;;;;;;20.57;10.20;;;28.30;77.40;;;;;;5089084;28;20032;-50
2021/04/22 11:27:13;;;;;;;25.02;10.27;;;28.40;76.60;;;;;;5106603;28;20032;-52
2021/04/22 11:29:44;;;;;;;24.13;10.93;;;28.40;76.80;;;;;;5107208;28;20038;-48
2021/04/22 11:32:25;;;;;;;21.52;10.68;;;28.60;76.50;;;;;;5106676;28;20016;-49
2021/04/22 11:34:54;;;;;;;20.20;10.88;;;28.90;75.70;;;;;;5107305;28;20023;-56
2021/04/22 11:37:22;;;;;;;23.67;11.40;;;28.90;75.60;;;;;;5106745;28;20328;-48
2021/04/22 11:39:50;;;;;;;22.95;10.68;;;28.90;75.70;;;;;;5107279;28;20077;-51
2021/04/22 11:42:18;;;;;;;24.63;9.98;;;29.00;75.60;;;;;;5106500;28;20225;-52
2021/04/22 11:44:49;;;;;;;19.95;10.43;;;29.20;75.80;;;;;;5106827;28;20035;-49
2021/04/22 11:47:22;;;;;;;23.63;10.00;;;29.20;74.90;;;;;;5106419;28;20221;-55
2021/04/22 11:50:03;;;;;;;27.77;10.07;;;29.30;74.90;;;;;;5106944;28;20024;-46
2021/04/22 11:52:50;;;;;;;29.55;10.27;;;29.30;75.10;;;;;;5071625;28;20022;-51
2021/04/22 11:55:21;;;;;;;34.05;10.43;;;29.20;75.50;;;;;;5106173;28;20156;-53
2021/04/22 11:57:56;;;;;;;26.35;11.18;;;29.10;75.90;;;;;;5106397;28;20049;-57
2021/04/22 12:00:29;;;;;;;21.65;10.90;;;29.00;76.00;;;;;;5106231;28;20020;-55
2021/04/22 12:02:57;;;;;;;21.83;10.43;;;29.10;76.30;;;;;;5106406;28;20194;-56
2021/04/22 12:05:24;;;;;;;22.58;10.20;;;29.00;76.30;;;;;;5106138;28;20200;-60
2021/04/22 12:08:11;;;;;;;27.70;10.02;;;29.00;76.40;;;;;;5087998;28;20312;-54
2021/04/22 12:10:49;;;;;;;17.83;10.00;;;29.00;76.90;;;;;;5106185;28;20289;-53
2021/04/22 12:13:19;;;;;;;20.55;10.48;;;29.00;76.90;;;;;;5106051;28;20023;-55
2021/04/22 12:15:50;;;;;;;24.80;11.30;;;29.00;76.90;;;;;;5106013;28;20327;-46
2021/04/22 12:18:34;;;;;;;23.52;10.40;;;29.00;77.00;;;;;;5106157;28;20024;-50
2021/04/22 12:21:11;;;;;;;24.27;11.02;;;29.00;77.10;;;;;;5087768;28;20051;-48
2021/04/22 12:23:41;;;;;;;25.50;10.13;;;29.00;77.40;;;;;;5104638;28;20016;-58
2021/04/22 12:26:23;;;;;;;21.77;11.00;;;29.00;77.60;;;;;;5105696;28;20027;-54
2021/04/22 12:29:01;;;;;;;24.27;10.65;;;29.00;77.80;;;;;;5105919;28;20024;-53
2021/04/22 12:31:28;;;;;;;24.67;11.35;;;29.00;77.80;;;;;;5105551;28;20027;-55
2021/04/22 12:33:56;;;;;;;21.77;10.77;;;29.00;77.60;;;;;;5105985;28;20028;-48
2021/04/22 12:36:23;;;;;;;23.42;10.70;;;29.10;77.70;;;;;;5105552;28;20061;-60
2021/04/22 12:38:50;;;;;;;21.15;10.18;;;29.10;77.50;;;;;;5106047;28;20233;-56
2021/04/22 12:41:20;;;;;;;22.35;10.25;;;29.20;77.40;;;;;;5105635;28;20030;-52